Weather at Kissimmee Gateway Airport

Public forecast

Using degrees Fahrenheit for public forecast. Weather courtesy of forecast.io.

Current aviation weather report (METAR) for Kissimmee Gateway Airport

Retrieved 2021/11/28 16:56 UTC (27 minutes ago):

KISM 281656Z 33007KT 10SM CLR 18/04 A3009 RMK AO2 SLP188 T01830039 PNO

Aviation forecast (TAF) for Kissimmee Gateway Airport

Retrieved 2021/11/28 12:34 UTC (5 hours ago):

TAF KISM 281131Z 2812/2912 33003KT P6SM SCT120 BKN150 BKN250 FM281500 30006KT P6SM FEW100 BKN120 BKN200 FM290000 32004KT P6SM SCT050 SCT080 OVC100